EDT,Max TemperatureF,Mean TemperatureF,Min TemperatureF,Max Dew PointF,MeanDew PointF,Min DewpointF,Max Humidity, Mean Humidity, Min Humidity, Max Sea Level PressureIn, Mean Sea Level PressureIn, Min Sea Level PressureIn, Max VisibilityMiles, Mean VisibilityMiles, Min VisibilityMiles, Max Wind SpeedMPH, Mean Wind SpeedMPH, Max Gust SpeedMPH,PrecipitationIn, CloudCover, Events, WindDirDegrees
2013-10-1,85,69,52,60,55,50,96,67,37,30.12,30.06,30.02,10,10,10,8,2,14,0.00,0,,182
2013-10-2,87,73,58,62,58,56,90,63,35,30.12,30.08,30.03,10,10,6,9,4,13,0.00,1,,219
2013-10-3,88,74,60,63,60,57,90,63,36,30.13,30.09,30.05,10,10,6,14,5,16,0.00,2,,194
2013-10-4,88,75,61,66,63,59,100,70,40,30.14,30.10,30.04,10,7,0,8,2,12,0.00,3,Fog,189
2013-10-5,90,76,62,67,63,61,100,69,38,30.12,30.08,30.02,10,6,0,12,3,15,0.00,1,Fog,173
2013-10-6,87,76,65,71,67,64,100,76,51,30.08,30.02,29.92,10,6,0,16,6,20,0.00,4,Fog,136
2013-10-7,81,73,65,72,70,66,100,84,67,29.95,29.89,29.83,10,9,3,22,7,29,0.21,6,Rain,143
2013-10-8,66,62,57,64,55,48,86,75,64,30.14,30.07,29.93,10,9,3,25,15,37,0.13,8,Rain,16
2013-10-9,67,62,57,56,54,51,93,81,68,30.13,30.08,30.03,10,10,5,23,15,31,0.02,8,Rain,2
2013-10-10,63,60,56,61,57,52,100,90,80,30.02,29.97,29.92,10,7,2,18,10,26,0.05,8,Rain,332
2013-10-11,74,68,62,63,60,57,93,79,64,29.96,29.93,29.89,10,10,6,13,6,16,0.01,8,Rain,338
2013-10-12,72,67,61,64,62,59,93,81,68,30.06,30.00,29.94,10,10,10,12,6,14,0.01,7,,328
2013-10-13,72,68,64,64,63,63,93,86,78,30.15,30.11,30.04,10,9,2,16,10,23,0.07,8,Rain,4
2013-10-14,69,64,59,64,62,57,100,88,76,30.19,30.15,30.12,10,7,2,16,11,22,0.02,7,Rain,15
2013-10-15,74,65,56,62,58,54,93,77,61,30.15,30.09,30.03,10,10,8,15,9,20,0.00,5,,15
2013-10-16,71,66,61,63,62,60,93,83,73,30.05,30.00,29.96,10,10,6,9,3,13,0.00,7,,26
2013-10-17,82,71,59,65,62,57,100,76,51,29.96,29.91,29.85,10,10,6,16,6,20,0.01,3,,228
2013-10-18,70,66,62,66,59,48,93,77,60,30.03,29.95,29.88,10,9,2,22,5,26,0.26,8,Rain,13
2013-10-19,74,68,61,65,61,56,100,84,68,29.96,29.91,29.83,10,6,0,13,4,16,0.10,7,Fog-Rain,239
2013-10-20,68,58,48,56,47,40,93,67,40,30.10,30.02,29.89,10,10,10,20,6,25,0.00,1,,2
2013-10-21,69,57,44,52,47,42,93,68,42,30.14,30.08,29.99,10,10,7,7,2,14,0.00,0,,29
2013-10-22,67,61,55,59,55,50,90,81,72,30.01,29.91,29.81,10,10,9,10,5,13,T,5,Rain,225
2013-10-23,73,61,49,58,49,30,100,63,25,30.00,29.76,29.69,10,7,1,24,12,32,0.00,4,,248
2013-10-24,62,52,42,41,33,27,77,54,30,30.17,30.10,30.01,10,10,10,17,7,23,0.00,1,,309
2013-10-25,59,49,38,38,31,25,79,54,28,30.35,30.27,30.17,10,10,10,18,8,26,0.00,3,,4
2013-10-26,62,47,31,34,30,25,92,59,25,30.34,30.23,30.10,10,10,10,14,5,18,0.00,0,,262
2013-10-27,70,54,38,46,39,34,86,60,33,30.13,30.08,30.04,10,10,10,12,3,14,0.00,0,,233
2013-10-28,70,58,45,57,50,43,93,75,57,30.26,30.19,30.12,10,9,5,7,1,9,T,4,Rain,22
2013-10-29,76,62,47,55,50,46,100,71,41,30.31,30.27,30.24,10,5,0,8,2,10,0.00,2,Fog,16
2013-10-30,79,65,51,59,53,50,100,70,39,30.31,30.26,30.16,10,4,0,13,4,17,0.00,4,Fog,213
2013-10-31,79,66,52,64,55,50,93,66,39,30.20,30.11,29.95,10,7,1,22,6,32,0.02,0,,190